createdAt,value
2023-01-22T00:01:30.967Z,11.20
2023-01-22T00:03:58.921Z,14.07
2023-01-22T00:06:27.617Z,17.05
2023-01-22T00:08:55.573Z,15.95
2023-01-22T00:11:23.669Z,11.75
2023-01-22T00:13:51.635Z,11.43
2023-01-22T00:16:21.236Z,12.85
2023-01-22T00:18:49.340Z,17.15
2023-01-22T00:21:17.994Z,21.23
2023-01-22T00:23:46.109Z,19.33
2023-01-22T00:26:16.478Z,18.52
2023-01-22T00:28:46.380Z,21.88
2023-01-22T00:31:16.232Z,15.10
2023-01-22T00:33:47.013Z,15.45
2023-01-22T00:36:17.342Z,18.27
2023-01-22T00:38:45.961Z,17.35
2023-01-22T00:41:14.868Z,20.27
2023-01-22T00:43:43.314Z,18.00
2023-01-22T00:46:14.663Z,17.00
2023-01-22T00:48:42.637Z,17.55
2023-01-22T00:51:13.132Z,20.75
2023-01-22T00:53:42.713Z,20.58
2023-01-22T00:56:12.293Z,24.17
2023-01-22T00:58:41.126Z,20.52
2023-01-22T01:01:09.663Z,17.88
2023-01-22T01:03:38.286Z,17.65
2023-01-22T01:06:08.917Z,20.27
2023-01-22T01:08:42.185Z,17.90
2023-01-22T01:11:13.883Z,20.75
2023-01-22T01:13:43.783Z,14.65
2023-01-22T01:16:14.500Z,19.65
2023-01-22T01:18:42.919Z,18.55
2023-01-22T01:21:12.039Z,22.60
2023-01-22T01:23:42.689Z,18.65
2023-01-22T01:26:13.575Z,21.17
2023-01-22T01:28:42.607Z,19.80
2023-01-22T01:31:13.391Z,23.60
2023-01-22T01:33:42.198Z,19.25
2023-01-22T01:36:13.273Z,22.33
2023-01-22T01:38:43.835Z,19.33
2023-01-22T01:41:15.043Z,19.08
2023-01-22T01:43:42.991Z,21.08
2023-01-22T01:46:19.865Z,18.25
2023-01-22T01:48:49.655Z,18.73
2023-01-22T01:51:24.751Z,25.55
2023-01-22T01:53:54.197Z,22.13
2023-01-22T01:56:28.050Z,27.25
2023-01-22T01:59:00.148Z,24.55
2023-01-22T02:01:29.215Z,20.73
2023-01-22T02:03:57.246Z,27.10
2023-01-22T02:06:25.128Z,21.95
2023-01-22T02:08:55.898Z,18.95
2023-01-22T02:11:24.925Z,21.88
2023-01-22T02:13:56.804Z,19.38
2023-01-22T02:16:25.046Z,25.50
2023-01-22T02:18:53.112Z,21.42
2023-01-22T02:21:37.392Z,20.52
2023-01-22T02:24:06.902Z,17.48
2023-01-22T02:26:35.677Z,19.33
2023-01-22T02:29:04.318Z,22.15
2023-01-22T02:31:32.634Z,17.05
2023-01-22T02:34:02.109Z,16.10
2023-01-22T02:36:32.541Z,21.45
2023-01-22T02:39:02.325Z,15.40
2023-01-22T02:41:30.756Z,18.50
2023-01-22T02:43:59.923Z,17.80
2023-01-22T02:46:28.043Z,19.40
2023-01-22T02:48:56.034Z,19.27
2023-01-22T02:51:24.149Z,15.52
2023-01-22T02:53:52.195Z,18.77
2023-01-22T02:56:22.556Z,11.65
2023-01-22T02:58:50.892Z,12.27
2023-01-22T03:01:21.691Z,14.32
2023-01-22T03:03:53.668Z,12.20
2023-01-22T03:06:25.937Z,9.15
2023-01-22T03:08:55.401Z,13.02
2023-01-22T03:11:26.074Z,11.48
2023-01-22T03:14:13.735Z,8.73
2023-01-22T03:17:00.003Z,11.73
2023-01-22T03:19:45.846Z,12.70
2023-01-22T03:22:19.282Z,7.63
2023-01-22T03:24:50.441Z,13.10
2023-01-22T03:27:21.744Z,7.85
2023-01-22T03:29:49.789Z,9.40
2023-01-22T03:32:20.155Z,9.23
2023-01-22T03:34:48.452Z,6.25
2023-01-22T03:37:17.127Z,8.60
2023-01-22T03:39:48.206Z,9.10
2023-01-22T03:42:26.927Z,9.90
2023-01-22T03:44:55.141Z,6.50
2023-01-22T03:47:23.510Z,7.38
2023-01-22T03:49:51.502Z,5.07
2023-01-22T03:52:19.548Z,7.25
2023-01-22T03:54:47.475Z,7.32
2023-01-22T03:57:15.441Z,6.45
2023-01-22T03:59:45.306Z,9.50
2023-01-22T04:02:13.381Z,6.20
2023-01-22T04:04:55.139Z,9.73
2023-01-22T04:07:23.705Z,9.48
2023-01-22T04:09:53.248Z,8.63
2023-01-22T04:12:21.203Z,9.05
2023-01-22T04:14:50.477Z,10.75
2023-01-22T04:17:20.004Z,8.98
2023-01-22T04:19:53.536Z,8.60
2023-01-22T04:22:45.096Z,8.65
2023-01-22T04:25:14.270Z,6.53
2023-01-22T04:27:45.554Z,8.73
2023-01-22T04:30:19.352Z,9.60
2023-01-22T04:32:50.197Z,8.07
2023-01-22T04:35:39.724Z,7.57
2023-01-22T04:38:08.969Z,10.77
2023-01-22T04:40:37.381Z,7.72
2023-01-22T04:43:07.480Z,11.85
2023-01-22T04:45:37.176Z,11.85
2023-01-22T04:48:05.927Z,8.00
2023-01-22T04:50:35.195Z,8.75
2023-01-22T04:53:03.186Z,13.10
2023-01-22T04:55:31.350Z,8.00
2023-01-22T04:58:04.241Z,7.70
2023-01-22T05:00:32.419Z,8.40
2023-01-22T05:03:05.500Z,8.02
2023-01-22T05:05:34.523Z,7.78
2023-01-22T05:08:03.694Z,8.10
2023-01-22T05:10:34.429Z,6.15
2023-01-22T05:13:06.041Z,7.78
2023-01-22T05:15:35.499Z,9.25
2023-01-22T05:18:10.540Z,9.88
2023-01-22T05:20:47.287Z,6.68
2023-01-22T05:23:16.397Z,6.93
2023-01-22T05:25:48.885Z,7.93
2023-01-22T05:28:19.488Z,9.52
2023-01-22T05:31:01.322Z,8.98
2023-01-22T05:33:36.532Z,10.27
2023-01-22T05:36:08.222Z,7.25
2023-01-22T05:38:36.422Z,12.77
2023-01-22T05:41:04.939Z,8.77
2023-01-22T05:43:38.631Z,8.18
2023-01-22T05:46:09.500Z,9.95
2023-01-22T05:48:57.681Z,10.23
2023-01-22T05:51:27.745Z,7.22
2023-01-22T05:53:55.685Z,6.45
2023-01-22T05:56:28.230Z,11.82
2023-01-22T05:58:56.211Z,5.50
2023-01-22T06:01:25.127Z,10.13
2023-01-22T06:03:54.673Z,9.32
2023-01-22T06:06:26.773Z,19.13
2023-01-22T06:08:56.384Z,10.93
2023-01-22T06:11:27.424Z,8.07
2023-01-22T06:13:55.417Z,15.52
2023-01-22T06:16:24.137Z,7.97
2023-01-22T06:19:09.720Z,4.82
2023-01-22T06:21:58.268Z,6.03
2023-01-22T06:24:33.075Z,9.13
2023-01-22T06:27:02.216Z,8.95
2023-01-22T06:29:40.262Z,7.78
2023-01-22T06:32:08.617Z,10.88
2023-01-22T06:34:36.742Z,7.13
2023-01-22T06:37:07.447Z,10.65
2023-01-22T06:39:38.829Z,4.60
2023-01-22T06:42:18.569Z,9.75
2023-01-22T06:44:47.838Z,9.00
2023-01-22T06:47:15.953Z,12.43
2023-01-22T06:49:44.013Z,14.82
2023-01-22T06:52:14.297Z,7.65
2023-01-22T06:54:42.146Z,9.15
2023-01-22T06:57:11.140Z,6.70
2023-01-22T06:59:40.569Z,9.57
2023-01-22T07:02:08.513Z,6.53
2023-01-22T07:04:36.729Z,12.77
2023-01-22T07:07:04.936Z,8.27
2023-01-22T07:09:34.291Z,8.27
2023-01-22T07:12:02.728Z,9.40
2023-01-22T07:14:36.912Z,39.03
2023-01-22T07:17:05.601Z,59.63
2023-01-22T07:19:33.716Z,10.48
2023-01-22T07:22:01.671Z,7.13
2023-01-22T07:24:30.399Z,8.30
2023-01-22T07:26:59.897Z,7.00
2023-01-22T07:29:27.803Z,11.85
2023-01-22T07:31:56.071Z,8.52
2023-01-22T07:34:24.135Z,12.35
2023-01-22T07:36:52.111Z,6.70
2023-01-22T07:39:20.029Z,8.85
2023-01-22T07:41:48.177Z,10.10
2023-01-22T07:44:18.008Z,8.20
2023-01-22T07:46:45.954Z,10.20
2023-01-22T07:49:15.072Z,10.80
2023-01-22T07:51:43.216Z,10.80
2023-01-22T07:54:11.263Z,6.90
2023-01-22T07:56:39.189Z,7.88
2023-01-22T07:59:07.178Z,11.02
2023-01-22T08:01:37.340Z,11.30
2023-01-22T08:04:05.760Z,9.95
2023-01-22T08:06:33.643Z,9.73
2023-01-22T08:09:01.610Z,10.95
2023-01-22T08:11:30.046Z,6.70
2023-01-22T08:13:59.162Z,9.65
2023-01-22T08:16:27.527Z,11.38
2023-01-22T08:18:56.866Z,7.38
2023-01-22T08:21:24.941Z,9.63
2023-01-22T08:23:53.573Z,10.80
2023-01-22T08:26:21.475Z,5.97
2023-01-22T08:28:49.405Z,13.50
2023-01-22T08:31:27.488Z,6.15
2023-01-22T08:33:59.218Z,9.07
2023-01-22T08:36:27.285Z,15.48
2023-01-22T08:38:56.410Z,11.13
2023-01-22T08:41:24.740Z,9.57
2023-01-22T08:43:53.339Z,10.70
2023-01-22T08:46:21.820Z,8.45
2023-01-22T08:48:50.741Z,11.27
2023-01-22T08:51:22.744Z,9.63
2023-01-22T08:53:51.009Z,9.77
2023-01-22T08:56:19.181Z,11.77
2023-01-22T08:58:49.967Z,11.38
2023-01-22T09:01:18.899Z,9.05
2023-01-22T09:03:48.726Z,12.50
2023-01-22T09:06:17.284Z,7.13
2023-01-22T09:08:46.539Z,14.32
2023-01-22T09:11:14.550Z,10.52
2023-01-22T09:13:42.523Z,8.88
2023-01-22T09:16:11.000Z,9.32
2023-01-22T09:18:39.401Z,13.88
2023-01-22T09:21:08.150Z,8.70
2023-01-22T09:23:37.405Z,12.13
2023-01-22T09:26:06.993Z,16.55
2023-01-22T09:28:36.226Z,9.38
2023-01-22T09:31:05.489Z,11.63
2023-01-22T09:33:34.445Z,10.75
2023-01-22T09:36:11.762Z,8.00
2023-01-22T09:38:41.150Z,11.02
2023-01-22T09:41:20.491Z,8.30
2023-01-22T09:43:54.038Z,7.20
2023-01-22T09:46:29.242Z,11.05
2023-01-22T09:49:05.418Z,10.20
2023-01-22T09:51:33.701Z,8.23
2023-01-22T09:54:05.347Z,12.70
2023-01-22T09:56:37.689Z,8.95
2023-01-22T09:59:08.618Z,8.15
2023-01-22T10:01:38.212Z,10.20
2023-01-22T10:04:17.266Z,12.65
2023-01-22T10:06:47.320Z,17.45
2023-01-22T10:09:20.820Z,12.52
2023-01-22T10:14:23.713Z,8.85
2023-01-22T10:16:52.033Z,11.48
2023-01-22T10:19:24.755Z,10.90
2023-01-22T10:22:02.354Z,11.38
2023-01-22T10:24:32.470Z,7.70
2023-01-22T10:27:13.558Z,7.20
2023-01-22T10:29:42.316Z,7.15
2023-01-22T10:32:20.833Z,8.30
2023-01-22T10:35:05.900Z,7.80
2023-01-22T10:37:47.169Z,9.05
2023-01-22T10:40:26.461Z,12.82
2023-01-22T10:43:05.001Z,7.78
2023-01-22T10:45:33.806Z,6.90
2023-01-22T10:48:08.388Z,9.52
2023-01-22T10:50:36.606Z,43.42
2023-01-22T10:53:05.782Z,41.20
2023-01-22T10:55:39.100Z,9.35
2023-01-22T10:58:17.214Z,11.50
2023-01-22T11:00:56.566Z,8.20
2023-01-22T11:03:30.930Z,7.15
2023-01-22T11:06:03.192Z,12.40
2023-01-22T11:08:45.329Z,10.82
2023-01-22T11:11:16.892Z,14.93
2023-01-22T11:13:54.296Z,10.98
2023-01-22T11:16:24.715Z,7.13
2023-01-22T11:18:58.655Z,10.68
2023-01-22T11:21:31.008Z,7.93
2023-01-22T11:24:05.114Z,9.23
2023-01-22T11:26:54.828Z,9.05
2023-01-22T11:29:45.121Z,10.10
2023-01-22T11:32:37.561Z,10.57
2023-01-22T11:35:19.579Z,9.20
2023-01-22T11:38:10.394Z,12.15
2023-01-22T11:40:48.373Z,13.52
2023-01-22T11:43:39.026Z,12.80
2023-01-22T11:46:32.490Z,14.32
2023-01-22T11:49:09.480Z,6.78
2023-01-22T11:51:47.568Z,6.78
2023-01-22T11:54:42.793Z,8.55
2023-01-22T11:57:18.146Z,9.18
2023-01-22T12:00:10.422Z,11.82
2023-01-22T12:03:01.891Z,8.30
2023-01-22T12:05:44.100Z,9.98
2023-01-22T12:08:25.980Z,8.15
2023-01-22T12:11:30.292Z,10.80
2023-01-22T12:16:51.642Z,9.63
2023-01-22T12:19:45.285Z,7.88
2023-01-22T12:22:26.616Z,8.25
2023-01-22T12:25:01.703Z,8.50
2023-01-22T12:27:33.872Z,7.60
2023-01-22T12:30:13.977Z,8.70
2023-01-22T12:32:45.177Z,13.20
2023-01-22T12:35:18.244Z,9.40
2023-01-22T12:37:50.051Z,15.77
2023-01-22T12:41:05.024Z,7.68
2023-01-22T12:43:38.979Z,8.73
2023-01-22T12:46:17.351Z,14.70
2023-01-22T12:48:55.788Z,22.92
2023-01-22T12:51:38.279Z,13.00
2023-01-22T12:54:21.132Z,12.30
2023-01-22T12:56:50.083Z,14.70
2023-01-22T12:59:42.360Z,12.90
2023-01-22T13:02:35.789Z,15.85
2023-01-22T13:05:23.653Z,17.70
2023-01-22T13:08:04.099Z,12.52
2023-01-22T13:10:34.897Z,12.60
2023-01-22T13:13:06.238Z,9.65
2023-01-22T13:15:38.168Z,11.82
2023-01-22T13:18:09.112Z,11.10
2023-01-22T13:20:47.626Z,12.82
2023-01-22T13:23:17.523Z,21.10
2023-01-22T13:25:46.187Z,12.43
2023-01-22T13:28:18.899Z,12.98
2023-01-22T13:30:57.273Z,13.10
2023-01-22T13:33:27.202Z,11.10
2023-01-22T13:35:55.526Z,7.90
2023-01-22T13:38:26.985Z,12.73
2023-01-22T13:40:58.169Z,17.80
2023-01-22T13:43:28.066Z,13.32
2023-01-22T13:45:59.432Z,13.13
2023-01-22T13:48:28.562Z,13.77
2023-01-22T13:50:59.545Z,11.38
2023-01-22T13:53:32.597Z,13.43
2023-01-22T13:56:02.679Z,7.13
2023-01-22T13:58:52.754Z,10.60
2023-01-22T14:01:31.461Z,17.13
2023-01-22T14:04:01.537Z,10.55
2023-01-22T14:06:31.304Z,14.15
2023-01-22T14:09:00.775Z,9.68
2023-01-22T14:11:39.470Z,22.95
2023-01-22T14:14:17.393Z,11.30
2023-01-22T14:16:45.771Z,13.70
2023-01-22T14:19:14.636Z,13.43
2023-01-22T14:21:43.335Z,13.63
2023-01-22T14:24:12.970Z,16.40
2023-01-22T14:26:41.660Z,88.95
2023-01-22T14:29:09.985Z,63.47
2023-01-22T14:31:38.119Z,85.30
2023-01-22T14:34:07.042Z,68.88
2023-01-22T14:36:37.123Z,104.55
2023-01-22T14:39:06.861Z,55.80
2023-01-22T14:41:36.366Z,45.88
2023-01-22T14:44:05.002Z,132.70
2023-01-22T14:46:33.100Z,26.25
2023-01-22T14:49:01.941Z,42.63
2023-01-22T14:51:30.083Z,22.15
2023-01-22T14:53:58.597Z,15.80
2023-01-22T14:56:26.977Z,14.48
2023-01-22T14:58:56.676Z,19.88
2023-01-22T15:01:25.327Z,18.55
2023-01-22T15:03:54.243Z,18.30
2023-01-22T15:06:22.523Z,16.88
2023-01-22T15:08:50.502Z,21.08
2023-01-22T15:11:18.786Z,18.83
2023-01-22T15:13:46.727Z,23.52
2023-01-22T15:16:16.731Z,13.90
2023-01-22T15:18:44.873Z,16.50
2023-01-22T15:21:13.009Z,11.63
2023-01-22T15:23:41.181Z,12.25
2023-01-22T15:26:23.607Z,17.63
2023-01-22T15:28:51.899Z,22.50
2023-01-22T15:31:21.516Z,21.02
2023-01-22T15:33:49.498Z,13.15
2023-01-22T15:36:17.797Z,13.98
2023-01-22T15:38:46.335Z,11.52
2023-01-22T15:41:23.808Z,21.27
2023-01-22T15:43:53.999Z,15.60
2023-01-22T15:46:26.350Z,18.92
2023-01-22T15:48:55.159Z,13.95
2023-01-22T15:51:23.499Z,15.40
2023-01-22T15:53:52.555Z,14.30
2023-01-22T15:56:22.633Z,15.05
2023-01-22T15:58:51.181Z,16.60
2023-01-22T16:01:20.540Z,17.00
2023-01-22T16:03:49.977Z,15.65
2023-01-22T16:06:22.717Z,15.55
2023-01-22T16:08:52.582Z,10.25
2023-01-22T16:11:21.874Z,16.10
2023-01-22T16:13:50.198Z,25.80
2023-01-22T16:16:20.253Z,15.73
2023-01-22T16:18:51.026Z,11.40
2023-01-22T16:21:21.340Z,12.88
2023-01-22T16:23:53.390Z,10.63
2023-01-22T16:26:23.761Z,11.80
2023-01-22T16:28:54.447Z,19.17
2023-01-22T16:31:24.831Z,17.05
2023-01-22T16:33:56.207Z,16.63
2023-01-22T16:36:25.997Z,11.70
2023-01-22T16:38:54.506Z,12.82
2023-01-22T16:41:28.017Z,11.25
2023-01-22T16:43:58.640Z,15.15
2023-01-22T16:46:28.992Z,12.77
2023-01-22T16:49:00.473Z,13.05
2023-01-22T16:51:29.970Z,12.05
2023-01-22T16:53:58.213Z,18.92
2023-01-22T16:56:26.285Z,15.50
2023-01-22T16:58:55.056Z,14.15
2023-01-22T17:01:23.124Z,28.90
2023-01-22T17:03:51.437Z,12.50
2023-01-22T17:06:26.947Z,9.55
2023-01-22T17:08:55.711Z,18.33
2023-01-22T17:11:23.988Z,17.98
2023-01-22T17:13:52.036Z,11.88
2023-01-22T17:16:20.459Z,12.65
2023-01-22T17:18:49.141Z,14.10
2023-01-22T17:21:19.828Z,17.08
2023-01-22T17:23:49.176Z,9.38
2023-01-22T17:26:18.174Z,11.63
2023-01-22T17:28:46.127Z,12.68
2023-01-22T17:31:17.061Z,15.10
2023-01-22T17:33:46.779Z,13.07
2023-01-22T17:36:17.012Z,12.90
2023-01-22T17:38:44.978Z,18.50
2023-01-22T17:41:17.134Z,12.63
2023-01-22T17:43:46.555Z,12.82
2023-01-22T17:46:16.487Z,18.55
2023-01-22T17:48:45.882Z,13.70
2023-01-22T17:51:16.081Z,12.38
2023-01-22T17:53:46.157Z,11.65
2023-01-22T17:56:18.384Z,16.70
2023-01-22T17:58:50.146Z,9.20
2023-01-22T18:01:20.333Z,13.02
2023-01-22T18:03:48.969Z,13.75
2023-01-22T18:06:17.321Z,9.95
2023-01-22T18:08:45.406Z,12.73
2023-01-22T18:11:16.804Z,13.98
2023-01-22T18:13:45.455Z,10.75
2023-01-22T18:16:16.336Z,16.55
2023-01-22T18:18:45.689Z,15.27
2023-01-22T18:21:16.615Z,12.68
2023-01-22T18:23:45.229Z,9.40
2023-01-22T18:26:16.158Z,11.32
2023-01-22T18:28:44.212Z,13.38
2023-01-22T18:31:14.347Z,10.25
2023-01-22T18:33:44.472Z,15.45
2023-01-22T18:36:16.145Z,8.70
2023-01-22T18:38:45.172Z,13.32
2023-01-22T18:41:16.624Z,14.65
2023-01-22T18:43:48.058Z,14.70
2023-01-22T18:46:16.960Z,8.25
2023-01-22T18:48:45.262Z,15.30
2023-01-22T18:51:14.613Z,12.95
2023-01-22T18:53:43.689Z,10.77
2023-01-22T18:56:13.517Z,9.85
2023-01-22T18:58:44.717Z,18.17
2023-01-22T19:01:15.033Z,15.10
2023-01-22T19:03:45.965Z,10.10
2023-01-22T19:06:16.386Z,11.73
2023-01-22T19:08:46.342Z,12.05
2023-01-22T19:11:16.156Z,10.10
2023-01-22T19:13:46.266Z,20.98
2023-01-22T19:16:16.811Z,16.98
2023-01-22T19:18:47.561Z,12.43
2023-01-22T19:21:17.310Z,14.57
2023-01-22T19:23:46.943Z,11.30
2023-01-22T19:26:18.104Z,12.73
2023-01-22T19:28:48.548Z,17.70
2023-01-22T19:31:18.007Z,14.63
2023-01-22T19:33:47.240Z,10.18
2023-01-22T19:36:15.783Z,10.90
2023-01-22T19:38:43.924Z,10.40
2023-01-22T19:41:12.204Z,15.40
2023-01-22T19:43:40.336Z,9.55
2023-01-22T19:46:13.649Z,14.80
2023-01-22T19:48:42.561Z,15.73
2023-01-22T19:51:13.219Z,10.23
2023-01-22T19:53:42.119Z,14.82
2023-01-22T19:56:18.363Z,13.27
2023-01-22T19:58:46.892Z,18.08
2023-01-22T20:01:18.465Z,24.35
2023-01-22T20:03:47.685Z,20.40
2023-01-22T20:06:17.943Z,16.83
2023-01-22T20:08:45.962Z,14.93
2023-01-22T20:11:15.056Z,12.73
2023-01-22T20:13:44.153Z,15.68
2023-01-22T20:16:20.421Z,13.63
2023-01-22T20:18:49.634Z,14.27
2023-01-22T20:21:18.462Z,16.25
2023-01-22T20:23:47.435Z,10.45
2023-01-22T20:26:17.318Z,12.13
2023-01-22T20:28:46.975Z,20.75
2023-01-22T20:31:20.075Z,26.27
2023-01-22T20:33:48.499Z,15.90
2023-01-22T20:36:16.752Z,13.27
2023-01-22T20:38:45.923Z,17.77
2023-01-22T20:41:15.528Z,13.18
2023-01-22T20:43:44.997Z,15.00
2023-01-22T20:46:16.458Z,11.38
2023-01-22T20:48:46.791Z,12.80
2023-01-22T20:51:17.420Z,14.73
2023-01-22T20:53:46.714Z,14.60
2023-01-22T20:56:16.935Z,18.20
2023-01-22T20:58:45.084Z,16.98
2023-01-22T21:01:15.743Z,13.80
2023-01-22T21:03:44.647Z,11.60
2023-01-22T21:06:15.890Z,15.70
2023-01-22T21:08:45.139Z,9.45
2023-01-22T21:11:18.072Z,18.98
2023-01-22T21:13:46.449Z,12.93
2023-01-22T21:16:17.070Z,16.88
2023-01-22T21:18:46.389Z,17.17
2023-01-22T21:21:18.808Z,25.25
2023-01-22T21:23:48.524Z,10.55
2023-01-22T21:26:19.437Z,14.88
2023-01-22T21:28:48.330Z,19.40
2023-01-22T21:31:19.305Z,14.93
2023-01-22T21:33:48.687Z,14.68
2023-01-22T21:36:20.317Z,19.05
2023-01-22T21:38:49.404Z,17.75
2023-01-22T21:41:19.882Z,15.73
2023-01-22T21:44:06.267Z,11.35
2023-01-22T21:46:36.818Z,18.85
2023-01-22T21:49:17.098Z,11.52
2023-01-22T21:51:49.260Z,20.85
2023-01-22T21:54:19.593Z,13.20
2023-01-22T21:56:48.059Z,12.75
2023-01-22T21:59:16.480Z,22.02
2023-01-22T22:01:45.402Z,15.20
2023-01-22T22:04:15.436Z,12.57
2023-01-22T22:06:43.488Z,16.83
2023-01-22T22:09:15.687Z,10.20
2023-01-22T22:11:44.220Z,15.02
2023-01-22T22:14:13.491Z,15.07
2023-01-22T22:16:41.638Z,17.55
2023-01-22T22:19:10.017Z,13.48
2023-01-22T22:21:38.430Z,15.48
2023-01-22T22:24:07.581Z,17.63
2023-01-22T22:26:37.468Z,10.13
2023-01-22T22:29:06.774Z,15.20
2023-01-22T22:31:36.641Z,13.32
2023-01-22T22:34:05.717Z,19.58
2023-01-22T22:36:34.108Z,17.35
2023-01-22T22:39:03.268Z,12.85
2023-01-22T22:41:33.760Z,14.27
2023-01-22T22:44:03.345Z,11.98
2023-01-22T22:46:33.424Z,12.82
2023-01-22T22:49:02.616Z,14.50
2023-01-22T22:51:32.883Z,14.95
2023-01-22T22:54:03.083Z,9.85
2023-01-22T22:56:31.722Z,15.20
2023-01-22T22:59:01.035Z,11.70
2023-01-22T23:01:31.649Z,11.52
2023-01-22T23:04:00.177Z,11.10
2023-01-22T23:06:30.309Z,16.90
2023-01-22T23:09:11.886Z,12.02
2023-01-22T23:11:40.495Z,9.02
2023-01-22T23:14:09.320Z,16.75
2023-01-22T23:16:40.648Z,18.17
2023-01-22T23:19:12.891Z,17.05
2023-01-22T23:21:41.759Z,13.73
2023-01-22T23:24:10.536Z,14.48
2023-01-22T23:26:39.246Z,12.43
2023-01-22T23:29:10.756Z,12.77
2023-01-22T23:31:40.985Z,19.02
2023-01-22T23:34:14.119Z,11.77
2023-01-22T23:36:45.198Z,10.60
2023-01-22T23:39:15.208Z,10.52
2023-01-22T23:41:43.784Z,14.23
2023-01-22T23:44:12.796Z,13.55
2023-01-22T23:46:42.478Z,13.82
2023-01-22T23:49:11.171Z,14.85
2023-01-22T23:51:41.304Z,24.25
2023-01-22T23:54:09.873Z,19.60
2023-01-22T23:56:37.862Z,12.15
2023-01-22T23:59:06.250Z,19.40
